Time;durP1;ratioP1;P1;durP2;ratioP2;P2;SDS_P1;SDS_P2;PMS_P1;PMS_P2;Temp;Humidity;BMP_temperature;BMP_pressure;BME280_temperature;BME280_humidity;BME280_pressure;Samples;Min_cycle;Max_cycle;Signal;HPM_P1;HPM_P2
2023/10/26 00:01:12;;;;;;;43.80;39.00;;;;;;;49.01;8.37;98677.85;111248;1258;21937;-78
2023/10/26 00:03:45;;;;;;;46.60;38.50;;;;;;;48.90;8.51;98678.11;110714;1264;21998;-79
2023/10/26 00:06:28;;;;;;;40.70;36.30;;;;;;;48.72;8.45;98680.86;110827;1261;21988;-80
2023/10/26 00:09:10;;;;;;;43.50;36.30;;;;;;;48.53;8.43;98685.52;110434;1263;22097;-80
2023/10/26 00:12:09;;;;;;;40.20;36.30;;;;;;;48.41;8.40;98682.31;110739;1263;22764;-80
2023/10/26 00:14:53;;;;;;;38.20;34.20;;;;;;;48.42;8.59;98683.77;110097;1270;21977;-80
2023/10/26 00:17:36;;;;;;;43.30;38.50;;;;;;;48.54;8.58;98670.30;109748;1270;21990;-79
2023/10/26 00:20:22;;;;;;;45.00;38.30;;;;;;;48.75;8.61;98671.23;110305;1266;22406;-79
2023/10/26 00:23:03;;;;;;;40.50;36.20;;;;;;;48.90;8.42;98671.55;110421;1261;23633;-80
2023/10/26 00:25:54;;;;;;;;;;;;;;;;;;;;;
2023/10/26 00:28:43;;;;;;;45.60;40.90;;;;;;;49.06;8.46;98657.27;110735;1261;21986;-79
2023/10/26 00:31:39;;;;;;;47.70;42.20;;;;;;;49.23;8.27;98650.64;110802;1261;22739;-78
2023/10/26 00:34:24;;;;;;;49.30;44.20;;;;;;;49.35;8.27;98650.49;111327;1254;21962;-81
2023/10/26 00:37:21;;;;;;;48.90;43.30;;;;;;;49.29;8.16;98649.92;111083;1254;22709;-80
2023/10/26 00:40:14;;;;;;;47.20;42.30;;;;;;;48.93;8.14;98654.45;110892;1261;21963;-80
2023/10/26 00:43:06;;;;;;;46.80;41.70;;;;;;;48.56;8.30;98655.50;110876;1248;21967;-81
2023/10/26 00:45:52;;;;;;;46.50;41.60;;;;;;;48.55;8.39;98652.76;110893;1261;23022;-81
2023/10/26 00:48:43;;;;;;;48.10;42.30;;;;;;;48.50;8.61;98650.02;110395;1265;22011;-79
2023/10/26 00:51:19;;;;;;;47.50;42.30;;;;;;;48.42;8.69;98649.01;110395;1265;24343;-81
2023/10/26 00:54:13;;;;;;;48.10;41.50;;;;;;;48.45;8.65;98647.98;109756;1270;22465;-82
2023/10/26 00:57:10;;;;;;;48.90;43.60;;;;;;;48.61;8.61;98636.13;109836;1269;21975;-79
2023/10/26 01:00:04;;;;;;;52.00;45.70;;;;;;;48.59;8.68;98634.63;110308;1266;22053;-79
2023/10/26 01:02:43;;;;;;;52.90;44.90;;;;;;;48.25;8.70;98633.09;109616;1273;22744;-79
2023/10/26 01:05:22;;;;;;;50.50;45.10;;;;;;;48.45;8.81;98630.11;109475;1273;23615;-80
2023/10/26 01:08:20;;;;;;;58.60;46.20;;;;;;;48.60;8.60;98630.39;109016;1277;23608;-80
2023/10/26 01:11:22;;;;;;;54.50;45.10;;;;;;;48.89;8.66;98624.69;108651;1274;21985;-79
2023/10/26 01:13:59;;;;;;;50.40;43.50;;;;;;;48.93;8.72;98620.05;108918;1279;22454;-80
2023/10/26 01:16:41;;;;;;;58.20;49.80;;;;;;;48.83;8.53;98618.11;108852;1279;22147;-79
2023/10/26 01:19:17;;;;;;;61.40;49.50;;;;;;;48.79;8.67;98616.19;109550;1270;22040;-80
2023/10/26 01:22:13;;;;;;;66.30;49.70;;;;;;;48.94;8.62;98610.44;110317;1264;23058;-80
2023/10/26 01:24:59;;;;;;;58.50;47.50;;;;;;;48.99;8.51;98605.80;110678;1264;24363;-79
2023/10/26 01:27:53;;;;;;;64.00;51.70;;;;;;;49.05;8.39;98602.64;111057;1256;21971;-80
2023/10/26 01:30:32;;;;;;;61.30;51.30;;;;;;;49.20;8.45;98597.80;111450;1254;22019;-79
2023/10/26 01:33:12;;;;;;;62.20;51.70;;;;;;;49.13;8.58;98596.64;111489;1254;21943;-78
2023/10/26 01:35:57;;;;;;;56.20;48.20;;;;;;;49.22;8.54;98596.98;111243;1253;21958;-78
2023/10/26 01:38:31;;;;;;;56.00;49.50;;;;;;;49.03;8.41;98593.72;110723;1256;21958;-79
2023/10/26 01:41:28;;;;;;;57.60;49.00;;;;;;;49.03;8.48;98587.95;111022;1259;21959;-83
2023/10/26 01:44:35;;;;;;;56.10;47.70;;;;;;;49.30;8.53;98584.89;111104;1259;22531;-79
2023/10/26 01:47:31;;;;;;;62.00;45.50;;;;;;;49.24;8.57;98577.86;110928;1259;22001;-83
2023/10/26 01:50:02;;;;;;;49.20;43.90;;;;;;;49.18;8.57;98572.41;110644;1266;21970;-81
2023/10/26 01:52:56;;;;;;;55.50;49.30;;;;;;;49.05;8.74;98568.11;110374;1266;21788;-80
2023/10/26 01:55:36;;;;;;;55.90;50.30;;;;;;;49.21;8.61;98560.46;110062;1269;21999;-80
2023/10/26 01:58:33;;;;;;;44.60;40.00;;;;;;;49.22;8.61;98555.81;109551;1274;23051;-79
2023/10/26 02:01:27;;;;;;;41.40;37.20;;;;;;;49.29;8.79;98553.36;109194;1279;22011;-80
2023/10/26 02:04:20;;;;;;;39.50;35.50;;;;;;;49.31;8.63;98552.92;109321;1275;21997;-81
2023/10/26 02:07:06;;;;;;;46.00;39.00;;;;;;;49.32;8.48;98551.86;108870;1280;22006;-81
2023/10/26 02:13:23;;;;;;;44.30;38.60;;;;;;;49.67;8.70;98542.20;109365;1275;22151;-82
2023/10/26 02:16:18;;;;;;;;;;;;;;;;;;;;;
2023/10/26 02:19:42;;;;;;;42.50;38.30;;;;;;;49.93;8.61;98538.73;110098;1261;22024;-80
2023/10/26 02:22:34;;;;;;;41.90;37.80;;;;;;;50.06;8.50;98535.36;110915;1261;22004;-80
2023/10/26 02:25:43;;;;;;;44.90;40.40;;;;;;;50.11;8.53;98536.73;111198;1254;22433;-80
2023/10/26 02:28:27;;;;;;;45.90;41.10;;;;;;;50.21;8.50;98534.30;111024;1260;22266;-81
2023/10/26 02:31:40;;;;;;;42.80;38.40;;;;;;;50.32;8.40;98530.94;110793;1260;21980;-80
2023/10/26 02:34:46;;;;;;;47.10;42.20;;;;;;;50.37;8.47;98530.19;110934;1257;23024;-80
2023/10/26 02:38:16;;;;;;;48.90;44.20;;;;;;;50.35;8.49;98525.54;110962;1253;23741;-80
2023/10/26 02:40:41;;;;;;;48.30;43.30;;;;;;;50.33;8.51;98525.20;110969;1260;24302;-82
2023/10/26 02:43:26;;;;;;;43.50;39.10;;;;;;;50.20;8.48;98527.48;110644;1263;22114;-81
2023/10/26 02:46:09;;;;;;;48.50;43.70;;;;;;;50.00;8.58;98524.53;110881;1259;21983;-80
2023/10/26 02:49:03;;;;;;;52.80;47.40;;;;;;;49.96;8.63;98522.14;110499;1264;23594;-81
2023/10/26 02:51:48;;;;;;;53.10;46.90;;;;;;;50.00;8.70;98522.40;110370;1259;21998;-79
2023/10/26 02:54:42;;;;;;;42.20;38.20;;;;;;;49.86;8.65;98520.59;110334;1260;22274;-81
2023/10/26 02:57:27;;;;;;;40.40;36.40;;;;;;;49.75;8.73;98528.05;110277;1267;21999;-79
2023/10/26 03:00:07;;;;;;;42.60;38.50;;;;;;;49.86;8.80;98521.63;109814;1267;22020;-79
2023/10/26 03:02:47;;;;;;;118.50;91.90;;;;;;;50.15;8.61;98512.61;110031;1265;23593;-79
2023/10/26 03:05:32;;;;;;;83.00;74.60;;;;;;;50.32;8.68;98501.54;110347;1265;21988;-79
2023/10/26 03:08:11;;;;;;;44.90;40.80;;;;;;;50.45;8.68;98501.22;110665;1260;24346;-80
2023/10/26 03:10:54;;;;;;;41.40;37.10;;;;;;;50.38;8.61;98498.16;110974;1259;23700;-79
2023/10/26 03:13:35;;;;;;;38.10;34.50;;;;;;;50.18;8.59;98495.63;111398;1254;21961;-79
2023/10/26 03:16:27;;;;;;;37.50;33.80;;;;;;;50.42;8.62;98492.50;111416;1248;23701;-79
2023/10/26 03:19:19;;;;;;;150.80;136.20;;;;;;;50.90;8.44;98481.94;111269;1254;21961;-78
2023/10/26 03:22:11;;;;;;;78.70;71.80;;;;;;;50.80;8.52;98476.15;111295;1254;22029;-79
2023/10/26 03:25:32;;;;;;;39.60;35.90;;;;;;;50.80;8.33;98463.92;110598;1262;22946;-80
2023/10/26 03:28:51;;;;;;;43.70;39.00;;;;;;;50.95;8.36;98449.40;110316;1268;24361;-79
2023/10/26 03:31:51;;;;;;;50.60;45.80;;;;;;;50.53;8.65;98449.11;110141;1268;23828;-80
2023/10/26 03:35:01;;;;;;;;;;;;;;;;;;;;;
2023/10/26 03:38:17;;;;;;;62.70;56.60;;;;;;;51.35;8.26;98442.67;109698;1271;21974;-79
2023/10/26 03:41:00;;;;;;;85.50;77.40;;;;;;;51.28;8.18;98441.38;109725;1261;23027;-80
2023/10/26 03:44:06;;;;;;;73.40;66.50;;;;;;;51.45;8.02;98437.25;110487;1252;21980;-80
2023/10/26 03:47:02;;;;;;;32.60;29.60;;;;;;;51.30;8.03;98441.57;110934;1260;21972;-80
2023/10/26 03:49:57;;;;;;;27.20;24.40;;;;;;;50.65;8.29;98450.80;111016;1260;21957;-81
2023/10/26 03:52:53;;;;;;;26.50;24.10;;;;;;;50.29;8.39;98456.55;110655;1260;21972;-80
2023/10/26 03:55:44;;;;;;;28.90;26.20;;;;;;;50.15;8.55;98452.95;111002;1260;21970;-79
2023/10/26 03:58:30;;;;;;;27.50;25.00;;;;;;;50.07;8.49;98448.44;110525;1263;22372;-80
2023/10/26 04:01:25;;;;;;;30.70;27.80;;;;;;;50.08;8.53;98440.77;109849;1269;21998;-80
2023/10/26 04:04:01;;;;;;;32.80;29.20;;;;;;;50.21;8.55;98428.56;110208;1269;23710;-80
2023/10/26 04:06:42;;;;;;;29.20;26.10;;;;;;;50.52;8.56;98425.48;110162;1260;22026;-79
2023/10/26 04:09:26;;;;;;;31.30;28.00;;;;;;;50.46;8.44;98421.16;110155;1269;21961;-80
2023/10/26 04:12:05;;;;;;;;;;;;;;;50.46;8.48;98409.10;110496;1263;22096;-78
2023/10/26 04:14:51;;;;;;;29.10;26.10;;;;;;;50.92;8.32;98397.06;110472;1251;23026;-80
2023/10/26 04:18:03;;;;;;;38.50;34.90;;;;;;;50.91;8.35;98391.89;110898;1261;22030;-79
2023/10/26 04:20:58;;;;;;;;;;;;;;;50.78;8.29;98385.74;111273;1254;23139;-84
2023/10/26 04:23:50;;;;;;;30.10;26.80;;;;;;;50.84;8.24;98380.77;111041;1255;23701;-79
2023/10/26 04:26:40;;;;;;;32.00;28.40;;;;;;;50.52;8.40;98380.48;111147;1255;23863;-80
2023/10/26 04:29:35;;;;;;;;;;;;;;;50.48;8.52;98374.64;111326;1255;21941;-79
2023/10/26 04:32:40;;;;;;;;;;;;;;;;;;;;;
2023/10/26 04:35:32;;;;;;;31.60;27.90;;;;;;;50.50;8.28;98373.65;110958;1260;23676;-79
2023/10/26 04:38:19;;;;;;;36.00;32.50;;;;;;;50.27;8.56;98374.95;110512;1265;21986;-80
2023/10/26 04:49:09;;;;;;;30.10;27.00;;;;;;;49.43;8.83;98378.88;109875;1271;22248;-80
2023/10/26 04:51:53;;;;;;;29.40;26.40;;;;;;;49.41;8.93;98373.23;109385;1271;22004;-79
2023/10/26 04:55:00;;;;;;;29.60;26.70;;;;;;;49.42;8.87;98376.65;109672;1270;23012;-82
2023/10/26 04:58:23;;;;;;;33.50;28.50;;;;;;;49.55;8.79;98377.95;110567;1266;22043;-80
2023/10/26 05:01:17;;;;;;;34.90;29.30;;;;;;;49.44;8.87;98379.70;110608;1260;22987;-83
2023/10/26 05:04:13;;;;;;;40.20;32.30;;;;;;;49.53;8.96;98369.36;111147;1255;21957;-80
2023/10/26 05:07:23;;;;;;;36.20;31.70;;;;;;;49.67;8.93;98356.26;111440;1255;21952;-81
2023/10/26 05:10:15;;;;;;;42.70;38.20;;;;;;;49.70;9.00;98351.56;111199;1255;22921;-81
2023/10/26 05:13:09;;;;;;;36.80;32.90;;;;;;;49.74;8.97;98346.74;111249;1255;22038;-80
2023/10/26 05:16:01;;;;;;;31.50;28.60;;;;;;;49.98;8.86;98344.95;111159;1255;21955;-80
2023/10/26 05:19:03;;;;;;;32.20;29.30;;;;;;;49.93;8.83;98335.74;111256;1255;21993;-80
2023/10/26 05:21:45;;;;;;;33.10;28.60;;;;;;;50.17;8.75;98330.31;110865;1262;22917;-81
2023/10/26 05:24:19;;;;;;;39.50;34.20;;;;;;;50.04;8.68;98328.02;110802;1262;22321;-81
2023/10/26 05:30:29;;;;;;;34.60;30.80;;;;;;;49.99;8.67;98331.18;109982;1263;22409;-79
2023/10/26 05:33:15;;;;;;;40.70;36.70;;;;;;;50.10;8.78;98327.64;110249;1269;23101;-80
2023/10/26 05:35:54;;;;;;;35.10;31.70;;;;;;;50.26;8.78;98326.31;110043;1268;21986;-80
2023/10/26 05:38:30;;;;;;;40.30;33.80;;;;;;;50.21;8.74;98326.25;110002;1268;23041;-79
2023/10/26 05:41:04;;;;;;;35.90;32.10;;;;;;;50.19;8.72;98322.32;110570;1261;22056;-80
2023/10/26 05:43:50;;;;;;;48.50;38.70;;;;;;;50.24;8.64;98320.67;110617;1262;22995;-78
2023/10/26 05:46:44;;;;;;;35.80;31.70;;;;;;;50.36;8.66;98314.36;111169;1256;21979;-78
2023/10/26 05:49:35;;;;;;;42.00;32.00;;;;;;;50.62;8.63;98306.43;110837;1256;21991;-79
2023/10/26 05:52:30;;;;;;;95.70;86.30;;;;;;;50.44;8.53;98305.36;110600;1260;22715;-80
2023/10/26 05:55:27;;;;;;;180.40;162.20;;;;;;;50.39;8.57;98306.81;111043;1260;23029;-79
2023/10/26 05:58:13;;;;;;;68.20;51.10;;;;;;;50.30;8.64;98304.43;110497;1266;21983;-79
2023/10/26 06:01:04;;;;;;;49.20;40.50;;;;;;;50.38;8.60;98308.38;110203;1265;21971;-80
2023/10/26 06:04:30;;;;;;;;;;;;;;;;;;;;;
2023/10/26 06:07:13;;;;;;;57.10;41.60;;;;;;;50.68;8.48;98306.98;109350;1274;22003;-77
2023/10/26 06:09:48;;;;;;;58.50;43.20;;;;;;;50.48;8.69;98307.96;109363;1272;21980;-80
2023/10/26 06:12:40;;;;;;;42.10;37.50;;;;;;;50.47;8.75;98307.71;109495;1272;21974;-80
2023/10/26 06:15:43;;;;;;;47.80;42.90;;;;;;;50.85;8.46;98302.95;109790;1265;23631;-78
2023/10/26 06:18:17;;;;;;;43.70;38.50;;;;;;;51.06;8.42;98298.54;110368;1266;21966;-80
2023/10/26 06:21:01;;;;;;;40.70;33.50;;;;;;;50.97;8.46;98294.93;110664;1265;21969;-78
2023/10/26 06:23:45;;;;;;;50.50;38.80;;;;;;;51.09;8.40;98293.02;110286;1266;22048;-79
2023/10/26 06:26:31;;;;;;;50.30;40.50;;;;;;;51.02;8.44;98292.14;110719;1259;21964;-78
2023/10/26 06:29:06;;;;;;;48.00;37.70;;;;;;;51.07;8.48;98289.97;110945;1259;23647;-78
2023/10/26 06:31:55;;;;;;;53.10;44.00;;;;;;;51.48;8.25;98289.81;110498;1263;22065;-79
2023/10/26 06:34:39;;;;;;;44.40;38.00;;;;;;;51.56;8.36;98285.21;110391;1263;23062;-78
2023/10/26 06:37:16;;;;;;;39.70;35.40;;;;;;;51.62;8.29;98288.06;109945;1267;23714;-80
2023/10/26 06:39:58;;;;;;;33.10;29.90;;;;;;;51.56;8.37;98288.14;110204;1267;22051;-79
2023/10/26 06:42:53;;;;;;;33.80;29.70;;;;;;;51.56;8.23;98279.90;110495;1264;22065;-78
2023/10/26 06:46:04;;;;;;;37.30;33.40;;;;;;;51.44;8.17;98280.10;110084;1269;22954;-79
2023/10/26 06:48:44;;;;;;;45.40;37.10;;;;;;;51.59;8.23;98280.16;109810;1270;21980;-78
2023/10/26 06:51:22;;;;;;;47.00;40.20;;;;;;;51.51;8.47;98281.60;109320;1274;21990;-82
2023/10/26 06:54:15;;;;;;;35.70;31.90;;;;;;;51.46;8.35;98283.69;109323;1274;23151;-79
2023/10/26 06:57:04;;;;;;;34.90;31.20;;;;;;;51.26;8.32;98280.13;109243;1274;21982;-80
2023/10/26 06:59:43;;;;;;;33.30;30.00;;;;;;;51.18;8.50;98278.52;109149;1277;23824;-79
2023/10/26 07:02:36;;;;;;;33.20;29.70;;;;;;;51.40;8.58;98274.09;108823;1276;23035;-79
2023/10/26 07:05:13;;;;;;;35.80;32.20;;;;;;;51.25;8.44;98272.79;109184;1273;23020;-77
2023/10/26 07:08:43;;;;;;;33.20;29.80;;;;;;;51.53;8.28;98268.90;109106;1273;21992;-79
2023/10/26 07:11:58;;;;;;;31.70;28.50;;;;;;;51.79;8.39;98269.55;110003;1270;22045;-78
2023/10/26 07:17:56;;;;;;;30.30;27.20;;;;;;;51.58;8.43;98269.98;109752;1265;22277;-78
2023/10/26 07:20:48;;;;;;;31.30;27.70;;;;;;;51.55;8.56;98272.58;110087;1266;21959;-78
2023/10/26 07:23:39;;;;;;;32.00;28.80;;;;;;;51.56;8.63;98267.02;110269;1266;21997;-79
2023/10/26 07:26:32;;;;;;;29.00;26.20;;;;;;;51.81;8.43;98263.54;109833;1271;23640;-80
2023/10/26 07:29:17;;;;;;;31.20;28.10;;;;;;;51.68;8.66;98268.10;109468;1268;21974;-81
2023/10/26 07:31:59;;;;;;;31.60;26.50;;;;;;;51.72;8.78;98264.08;109605;1273;23038;-79
2023/10/26 07:34:36;;;;;;;30.20;27.50;;;;;;;52.09;8.39;98257.16;109506;1273;23604;-80
2023/10/26 07:37:21;;;;;;;35.60;32.00;;;;;;;52.41;8.36;98257.94;109977;1269;22051;-80
2023/10/26 07:40:05;;;;;;;39.00;35.20;;;;;;;52.57;8.42;98256.14;110035;1266;23343;-79
2023/10/26 07:43:09;;;;;;;33.60;30.40;;;;;;;52.81;8.40;98252.91;110495;1266;22010;-79
2023/10/26 07:45:46;;;;;;;37.40;33.50;;;;;;;52.86;8.43;98254.04;110982;1261;23701;-79
2023/10/26 07:48:30;;;;;;;36.50;32.80;;;;;;;52.97;8.17;98250.67;110689;1261;21971;-79
2023/10/26 07:51:24;;;;;;;35.50;31.90;;;;;;;52.92;8.07;98251.93;110385;1261;21983;-80
2023/10/26 07:54:11;;;;;;;48.80;42.40;;;;;;;53.07;8.06;98253.90;110556;1261;22310;-86
2023/10/26 07:57:10;;;;;;;38.70;33.70;;;;;;;52.97;8.16;98256.09;110862;1261;21989;-79
2023/10/26 08:00:15;;;;;;;;;;;;;;;;;;;;;
2023/10/26 08:02:49;;;;;;;74.00;53.60;;;;;;;53.47;7.99;98247.16;110271;1260;21989;-78
2023/10/26 08:05:34;;;;;;;62.30;46.90;;;;;;;53.33;8.15;98254.53;110276;1264;22056;-78
2023/10/26 08:08:10;;;;;;;80.80;71.90;;;;;;;53.51;8.02;98254.23;110777;1260;22955;-78
2023/10/26 08:15:17;;;;;;;76.70;54.20;;;;;;;53.84;7.63;98255.23;109081;1276;21983;-77
2023/10/26 08:18:42;;;;;;;44.80;38.40;;;;;;;53.71;7.79;98255.86;109218;1266;22114;-77
2023/10/26 08:21:55;;;;;;;37.40;30.50;;;;;;;53.90;7.86;98253.80;109371;1271;22738;-77
2023/10/26 08:25:14;;;;;;;;;;;;;;;54.18;7.64;98246.85;109145;1275;23043;-75
2023/10/26 08:28:49;;;;;;;26.70;23.90;;;;;;;54.10;7.56;98253.23;109039;1274;22002;-78
2023/10/26 08:32:53;;;;;;;;;;;;;;;;;;;;;
2023/10/26 08:36:42;;;;;;;25.60;23.40;;;;;;;54.67;7.55;98245.93;109036;1273;24172;-80
2023/10/26 08:40:43;;;;;;;;;;;;;;;;;;;;;
2023/10/26 08:44:16;;;;;;;23.70;15.60;;;;;;;55.29;7.22;98245.80;109004;1280;22028;-81
2023/10/26 08:47:02;;;;;;;16.80;15.00;;;;;;;54.86;7.44;98250.80;109340;1274;22317;-80
2023/10/26 08:49:52;;;;;;;17.90;14.80;;;;;;;54.94;7.35;98254.20;109496;1276;22827;-80
2023/10/26 08:52:52;;;;;;;17.50;14.90;;;;;;;55.00;7.34;98251.23;109541;1273;22370;-80
2023/10/26 08:55:30;;;;;;;18.00;14.50;;;;;;;54.82;7.36;98253.92;109613;1273;22010;-82
2023/10/26 08:58:13;;;;;;;16.90;12.00;;;;;;;54.89;7.36;98258.06;109668;1273;22765;-79
2023/10/26 09:01:04;;;;;;;19.40;14.40;;;;;;;54.85;7.29;98256.55;109301;1277;21989;-83
2023/10/26 09:04:29;;;;;;;19.50;14.60;;;;;;;55.04;7.38;98253.36;109290;1277;22199;-83
2023/10/26 09:07:39;;;;;;;20.20;13.20;;;;;;;55.21;7.31;98251.91;109244;1277;21959;-82
2023/10/26 09:10:34;;;;;;;14.90;12.60;;;;;;;55.56;7.19;98246.89;108967;1280;22764;-85
2023/10/26 09:13:34;;;;;;;15.50;13.10;;;;;;;55.59;7.13;98248.23;109133;1280;24475;-82
2023/10/26 09:16:51;;;;;;;13.10;11.70;;;;;;;55.72;7.14;98246.88;109111;1280;21965;-81
2023/10/26 09:19:47;;;;;;;15.20;11.20;;;;;;;55.64;7.22;98250.19;109733;1268;21942;-81
2023/10/26 09:22:48;;;;;;;10.50;9.20;;;;;;;55.53;7.21;98257.06;111077;1261;21970;-86
2023/10/26 09:26:03;;;;;;;11.30;9.70;;;;;;;55.63;7.23;98256.59;110607;1264;21964;-84
2023/10/26 09:28:59;;;;;;;10.10;9.00;;;;;;;55.88;7.22;98253.36;110180;1264;21979;-84
2023/10/26 09:36:18;;;;;;;12.80;8.70;;;;;;;55.78;6.93;98256.08;110926;1264;24336;-83
2023/10/26 09:39:33;;;;;;;12.10;8.70;;;;;;;55.51;7.04;98260.19;109891;1274;22511;-83
2023/10/26 09:42:54;;;;;;;9.50;8.50;;;;;;;55.52;7.19;98258.83;105013;1273;21970;-84
2023/10/26 09:45:47;;;;;;;9.50;7.10;;;;;;;55.65;7.13;98253.31;109174;1280;22010;-82
2023/10/26 09:49:06;;;;;;;14.90;11.20;;;;;;;55.58;7.17;98254.31;109395;1273;21987;-82
2023/10/26 09:51:44;;;;;;;9.10;8.00;;;;;;;55.46;7.20;98256.31;109420;1273;22059;-83
2023/10/26 09:54:53;;;;;;;8.70;7.60;;;;;;;55.37;7.31;98254.61;109473;1275;22113;-82
2023/10/26 09:58:07;;;;;;;8.70;7.10;;;;;;;55.45;7.31;98258.55;109781;1269;22408;-82
2023/10/26 10:01:42;;;;;;;;;;;;;;;55.49;7.17;98259.09;110226;1269;21966;-83
2023/10/26 10:04:56;;;;;;;9.10;8.20;;;;;;;55.90;7.07;98253.83;109920;1272;24119;-83
2023/10/26 10:08:16;;;;;;;13.80;9.70;;;;;;;55.90;7.14;98258.30;109873;1271;21982;-81
2023/10/26 10:11:34;;;;;;;12.00;9.00;;;;;;;55.97;7.07;98258.89;109871;1271;21998;-82
2023/10/26 10:15:11;;;;;;;9.00;7.50;;;;;;;55.81;7.00;98259.89;110028;1265;23596;-80
2023/10/26 10:18:20;;;;;;;8.60;7.80;;;;;;;55.73;7.11;98260.92;110687;1265;21971;-84
2023/10/26 10:21:44;;;;;;;12.30;8.30;;;;;;;55.44;7.25;98261.52;110580;1266;22354;-82
2023/10/26 10:24:47;;;;;;;8.90;8.00;;;;;;;55.53;7.36;98259.62;110162;1270;22008;-83
2023/10/26 10:27:57;;;;;;;7.60;6.90;;;;;;;55.55;7.33;98258.40;110324;1269;22457;-82
2023/10/26 10:31:38;;;;;;;11.60;7.70;;;;;;;55.59;7.36;98265.41;110254;1269;23721;-81
2023/10/26 10:34:45;;;;;;;8.40;7.60;;;;;;;55.88;7.32;98257.27;109716;1274;22352;-81
2023/10/26 10:37:35;;;;;;;9.10;8.00;;;;;;;55.81;7.17;98256.21;109781;1274;22000;-81
2023/10/26 10:40:39;;;;;;;8.20;7.30;;;;;;;55.77;7.40;98254.95;109670;1274;22614;-83
2023/10/26 10:43:55;;;;;;;8.10;7.00;;;;;;;55.95;7.40;98251.46;109887;1271;22051;-82
2023/10/26 10:46:49;;;;;;;;;;;;;;;56.24;7.25;98251.27;109849;1271;22438;-82
2023/10/26 10:50:50;;;;;;;6.90;6.20;;;;;;;56.54;7.20;98250.70;110189;1271;22083;-83
2023/10/26 10:53:56;;;;;;;10.10;5.30;;;;;;;56.62;7.31;98248.30;110332;1271;21997;-83
2023/10/26 10:56:51;;;;;;;10.00;5.80;;;;;;;56.44;7.30;98247.55;110230;1267;22098;-82
2023/10/26 11:00:03;;;;;;;7.30;5.00;;;;;;;56.32;7.35;98250.14;109809;1267;22024;-81
2023/10/26 11:03:15;;;;;;;8.80;5.80;;;;;;;56.66;7.06;98249.45;109637;1276;22372;-82
2023/10/26 11:06:03;;;;;;;9.10;6.60;;;;;;;56.73;7.07;98244.25;109496;1276;22184;-82
2023/10/26 11:09:08;;;;;;;8.30;6.20;;;;;;;56.53;7.07;98250.02;109455;1276;23679;-80
2023/10/26 11:12:10;;;;;;;5.10;4.60;;;;;;;56.13;7.22;98254.89;109534;1276;22029;-78
2023/10/26 11:15:00;;;;;;;8.90;5.60;;;;;;;56.16;7.38;98254.55;109202;1273;22852;-79
2023/10/26 11:18:15;;;;;;;6.00;4.60;;;;;;;56.49;7.29;98248.84;109693;1273;22011;-78
2023/10/26 11:21:01;;;;;;;4.50;3.40;;;;;;;56.49;7.25;98246.75;109271;1273;21968;-79
2023/10/26 11:23:51;;;;;;;6.50;4.00;;;;;;;56.48;7.28;98247.81;109722;1273;22024;-79
2023/10/26 11:27:17;;;;;;;3.60;3.00;;;;;;;56.87;7.07;98246.79;109727;1273;23139;-79
2023/10/26 11:30:13;;;;;;;4.00;3.20;;;;;;;56.75;6.91;98249.02;110100;1265;22035;-79
2023/10/26 11:33:14;;;;;;;6.50;3.80;;;;;;;56.63;7.07;98253.08;110449;1265;21990;-80
2023/10/26 11:35:57;;;;;;;3.00;2.70;;;;;;;56.65;7.11;98251.86;110432;1265;22484;-81
2023/10/26 11:39:08;;;;;;;6.80;3.10;;;;;;;56.74;7.04;98255.76;110443;1257;22197;-79
2023/10/26 11:42:16;;;;;;;3.40;2.90;;;;;;;56.66;6.87;98261.45;111068;1257;21966;-78
2023/10/26 11:45:46;;;;;;;6.00;3.40;;;;;;;56.59;6.94;98260.96;111157;1257;21960;-80
2023/10/26 11:48:54;;;;;;;4.00;3.10;;;;;;;56.24;7.03;98259.26;110426;1264;21991;-82
2023/10/26 11:51:47;;;;;;;3.50;2.40;;;;;;;56.22;7.06;98258.88;110550;1258;23052;-81
2023/10/26 11:54:59;;;;;;;3.80;3.40;;;;;;;56.28;7.00;98258.65;110609;1264;22024;-81
2023/10/26 11:58:05;;;;;;;5.60;5.00;;;;;;;56.18;7.12;98259.64;110490;1264;21976;-80
2023/10/26 12:01:08;;;;;;;7.90;5.10;;;;;;;56.02;7.17;98259.45;110340;1264;23515;-81
2023/10/26 12:04:00;;;;;;;4.80;4.00;;;;;;;55.76;7.17;98263.69;110550;1264;21982;-80
2023/10/26 12:06:58;;;;;;;3.90;3.60;;;;;;;55.78;7.20;98261.69;110727;1257;21965;-79
2023/10/26 12:10:02;;;;;;;3.90;3.00;;;;;;;55.70;7.33;98266.20;111135;1257;23033;-80
2023/10/26 12:13:06;;;;;;;4.70;3.20;;;;;;;55.39;7.28;98267.95;111036;1257;22023;-79
2023/10/26 12:16:10;;;;;;;5.10;4.10;;;;;;;55.43;7.34;98267.04;110396;1263;21971;-80
2023/10/26 12:19:06;;;;;;;4.70;3.10;;;;;;;55.47;7.27;98268.77;110822;1262;23027;-80
2023/10/26 12:22:07;;;;;;;4.20;3.20;;;;;;;55.17;7.40;98275.25;110822;1263;23606;-80
2023/10/26 12:24:51;;;;;;;6.30;3.20;;;;;;;54.86;7.55;98277.61;110835;1263;21989;-81
2023/10/26 12:27:42;;;;;;;5.00;3.70;;;;;;;55.00;7.48;98280.29;110124;1264;23589;-79
2023/10/26 12:30:50;;;;;;;5.80;3.40;;;;;;;55.01;7.49;98279.23;110763;1265;22046;-80
2023/10/26 12:33:57;;;;;;;5.70;3.80;;;;;;;55.03;7.48;98278.66;109877;1267;23618;-80
2023/10/26 12:36:51;;;;;;;7.70;6.90;;;;;;;55.11;7.45;98285.89;110013;1267;21984;-80
2023/10/26 12:40:14;;;;;;;7.80;5.50;;;;;;;55.10;7.37;98286.54;110022;1267;22010;-80
2023/10/26 12:42:57;;;;;;;6.80;4.10;;;;;;;55.13;7.33;98287.80;109487;1272;23009;-81
2023/10/26 12:45:39;;;;;;;11.60;6.90;;;;;;;55.04;7.35;98293.91;109770;1268;22008;-79
2023/10/26 12:48:31;;;;;;;8.90;4.10;;;;;;;54.99;7.27;98290.90;109479;1275;23152;-81
2023/10/26 12:51:21;;;;;;;7.20;4.70;;;;;;;55.04;7.39;98290.96;109472;1269;22937;-81
2023/10/26 12:54:24;;;;;;;6.40;4.60;;;;;;;55.05;7.39;98295.11;109289;1268;21985;-81
2023/10/26 12:57:24;;;;;;;8.00;5.50;;;;;;;55.05;7.27;98296.32;109401;1275;23620;-81
2023/10/26 13:00:27;;;;;;;8.50;6.10;;;;;;;54.86;7.28;98299.97;109232;1275;21982;-81
2023/10/26 13:03:07;;;;;;;4.90;4.00;;;;;;;54.92;7.44;98298.59;109284;1268;22031;-81
2023/10/26 13:06:12;;;;;;;4.80;4.30;;;;;;;54.92;7.35;98301.22;109568;1268;22267;-80
2023/10/26 13:09:42;;;;;;;;;;;;;;;;;;;;;
2023/10/26 13:12:40;;;;;;;5.80;4.70;;;;;;;54.93;7.38;98304.90;110060;1261;22130;-81
2023/10/26 13:15:29;;;;;;;5.80;3.90;;;;;;;54.77;7.42;98304.15;109912;1270;23624;-80
2023/10/26 13:19:01;;;;;;;;;;;;;;;;;;;;;
2023/10/26 13:21:50;;;;;;;8.10;4.40;;;;;;;54.65;7.55;98310.25;109620;1271;22049;-80
2023/10/26 13:24:57;;;;;;;4.50;3.60;;;;;;;54.57;7.59;98311.70;109497;1273;22641;-82
2023/10/26 13:27:46;;;;;;;6.70;4.40;;;;;;;54.75;7.50;98311.10;109404;1274;24329;-81
2023/10/26 13:30:27;;;;;;;5.80;4.10;;;;;;;54.66;7.53;98308.17;109331;1274;22759;-82
2023/10/26 13:33:12;;;;;;;;;;;;;;;;;;;;;
2023/10/26 13:36:27;;;;;;;13.00;7.30;;;;;;;54.66;7.52;98311.68;109750;1269;21986;-81
2023/10/26 13:39:22;;;;;;;6.60;4.70;;;;;;;54.73;7.50;98313.97;109540;1273;22007;-80
2023/10/26 13:42:05;;;;;;;7.00;4.90;;;;;;;54.57;7.53;98315.05;109542;1273;22085;-81
2023/10/26 13:45:06;;;;;;;4.80;3.80;;;;;;;54.39;7.77;98315.30;109609;1273;22085;-81
2023/10/26 13:48:15;;;;;;;;;;;;;;;;;;;;;
2023/10/26 13:50:54;;;;;;;7.30;5.20;;;;;;;54.50;7.70;98314.43;110340;1264;22142;-80
2023/10/26 13:53:35;;;;;;;10.00;8.60;;;;;;;54.36;7.71;98315.08;110133;1268;22711;-80
2023/10/26 13:56:14;;;;;;;7.70;6.10;;;;;;;54.29;7.67;98315.23;110195;1265;23794;-79
2023/10/26 13:58:50;;;;;;;6.70;6.00;;;;;;;54.11;7.79;98317.00;110741;1260;22145;-80
2023/10/26 14:01:28;;;;;;;7.00;5.40;;;;;;;54.14;7.73;98321.64;111039;1260;23628;-79
2023/10/26 14:04:22;;;;;;;8.30;6.00;;;;;;;54.30;7.65;98320.18;111142;1260;23020;-81
2023/10/26 14:07:09;;;;;;;10.00;7.10;;;;;;;54.48;7.61;98324.23;110960;1260;21963;-79
2023/10/26 14:09:53;;;;;;;6.50;4.60;;;;;;;54.74;7.47;98323.31;110544;1265;22082;-79
2023/10/26 14:12:44;;;;;;;7.10;4.70;;;;;;;54.71;7.50;98328.02;110224;1267;21997;-79
2023/10/26 14:15:23;;;;;;;12.70;11.40;;;;;;;54.56;7.51;98330.60;110460;1267;22046;-78
2023/10/26 14:17:54;;;;;;;7.70;6.60;;;;;;;54.59;7.53;98332.83;110156;1267;21999;-78
2023/10/26 14:21:27;;;;;;;;;;;;;;;;;;;;;